createdAt,value
2023-02-12T00:03:18.628Z,7.04
2023-02-12T00:08:20.180Z,7.07
2023-02-12T00:13:21.843Z,7.13
2023-02-12T00:18:23.341Z,7.10
2023-02-12T00:23:24.913Z,7.05
2023-02-12T00:28:26.839Z,7.03
2023-02-12T00:33:28.611Z,6.96
2023-02-12T00:38:30.404Z,6.99
2023-02-12T00:43:31.990Z,6.93
2023-02-12T00:48:34.094Z,6.87
2023-02-12T00:53:36.368Z,6.85
2023-02-12T00:58:37.874Z,6.85
2023-02-12T01:03:39.391Z,6.87
2023-02-12T01:08:40.971Z,6.91
2023-02-12T01:13:42.486Z,6.96
2023-02-12T01:18:45.268Z,7.01
2023-02-12T01:23:47.872Z,7.02
2023-02-12T01:28:52.677Z,6.98
2023-02-12T01:33:56.739Z,6.88
2023-02-12T01:38:59.316Z,6.85
2023-02-12T01:44:19.293Z,6.92
2023-02-12T01:49:24.738Z,6.91
2023-02-12T01:54:27.171Z,6.92
2023-02-12T01:59:30.070Z,6.89
2023-02-12T02:04:40.349Z,6.93
2023-02-12T02:09:42.529Z,6.92
2023-02-12T02:14:44.780Z,6.96
2023-02-12T02:20:10.727Z,7.02
2023-02-12T02:25:26.363Z,7.02
2023-02-12T02:30:33.428Z,7.02
2023-02-12T02:35:56.038Z,6.92
2023-02-12T02:41:07.449Z,6.85
2023-02-12T02:46:14.308Z,6.80
2023-02-12T02:51:21.744Z,6.78
2023-02-12T02:56:24.647Z,6.78
2023-02-12T03:01:39.542Z,6.79
2023-02-12T03:06:49.563Z,6.80
2023-02-12T03:11:53.452Z,6.82
2023-02-12T03:17:02.557Z,6.87
2023-02-12T03:22:14.529Z,6.91
2023-02-12T03:27:31.274Z,6.88
2023-02-12T03:32:57.092Z,6.88
2023-02-12T03:38:09.494Z,6.91
2023-02-12T03:43:25.098Z,6.93
2023-02-12T03:48:46.260Z,6.89
2023-02-12T03:53:48.589Z,6.85
2023-02-12T03:58:50.094Z,6.83
2023-02-12T04:03:51.818Z,6.82
2023-02-12T04:08:57.504Z,6.83
2023-02-12T04:14:34.527Z,6.88
2023-02-12T04:19:56.461Z,6.93
2023-02-12T04:25:15.748Z,6.91
2023-02-12T04:30:40.646Z,6.85
2023-02-12T04:36:03.077Z,6.86
2023-02-12T04:41:08.320Z,6.86
2023-02-12T04:46:09.942Z,6.84
2023-02-12T04:51:11.478Z,6.80
2023-02-12T04:56:13.697Z,6.76
2023-02-12T05:01:15.378Z,6.77
2023-02-12T05:06:16.913Z,6.77
2023-02-12T05:11:18.420Z,6.76
2023-02-12T05:16:21.315Z,6.74
2023-02-12T05:21:22.946Z,6.70
2023-02-12T05:26:24.643Z,6.69
2023-02-12T05:31:26.593Z,6.68
2023-02-12T05:36:28.344Z,6.68
2023-02-12T05:41:34.761Z,6.70
2023-02-12T05:46:36.341Z,6.74
2023-02-12T05:51:38.113Z,6.74
2023-02-12T05:56:45.446Z,6.75
2023-02-12T06:01:49.066Z,6.77
2023-02-12T06:06:51.826Z,6.81
2023-02-12T06:11:53.273Z,6.86
2023-02-12T06:16:54.837Z,6.89
2023-02-12T06:21:56.313Z,6.93
2023-02-12T06:26:57.846Z,6.91
2023-02-12T06:31:59.486Z,6.91
2023-02-12T06:37:01.042Z,6.96
2023-02-12T06:42:02.651Z,6.94
2023-02-12T06:47:04.378Z,6.91
2023-02-12T06:52:05.861Z,6.87
2023-02-12T06:57:07.347Z,6.85
2023-02-12T07:02:11.289Z,6.94
2023-02-12T07:07:12.952Z,7.09
2023-02-12T07:12:14.611Z,7.20
2023-02-12T07:17:16.138Z,7.32
2023-02-12T07:22:17.691Z,7.62
2023-02-12T07:27:19.373Z,8.45
2023-02-12T07:32:20.852Z,9.46
2023-02-12T07:37:22.838Z,10.76
2023-02-12T07:42:24.427Z,11.78
2023-02-12T07:47:25.972Z,13.07
2023-02-12T07:52:27.446Z,14.28
2023-02-12T07:57:28.926Z,15.30
2023-02-12T08:02:30.558Z,15.65
2023-02-12T08:07:32.393Z,15.24
2023-02-12T08:12:34.043Z,15.52
2023-02-12T08:17:35.598Z,15.82
2023-02-12T08:22:37.242Z,15.98
2023-02-12T08:27:41.652Z,16.03
2023-02-12T08:32:43.134Z,16.29
2023-02-12T08:37:44.699Z,16.42
2023-02-12T08:42:46.248Z,16.81
2023-02-12T08:47:48.576Z,17.00
2023-02-12T08:52:50.119Z,15.90
2023-02-12T08:57:53.406Z,14.63
2023-02-12T09:02:54.961Z,13.49
2023-02-12T09:07:56.500Z,13.03
2023-02-12T09:12:57.986Z,12.54
2023-02-12T09:18:04.003Z,12.12
2023-02-12T09:23:12.678Z,12.14
2023-02-12T09:28:14.733Z,12.66
2023-02-12T09:33:16.253Z,12.86
2023-02-12T09:38:17.788Z,13.61
2023-02-12T09:43:44.148Z,14.24
2023-02-12T09:48:51.636Z,13.53
2023-02-12T09:54:11.874Z,13.60
2023-02-12T09:59:22.659Z,14.09
2023-02-12T10:04:25.734Z,14.79
2023-02-12T10:09:45.882Z,13.98
2023-02-12T10:15:03.199Z,13.45
2023-02-12T10:20:35.940Z,13.10
2023-02-12T10:25:59.860Z,12.81
2023-02-12T10:31:29.333Z,12.29
2023-02-12T10:36:45.842Z,12.33
2023-02-12T10:41:59.474Z,12.21
2023-02-12T10:47:01.658Z,12.32
2023-02-12T10:52:22.120Z,13.26
2023-02-12T10:57:30.133Z,13.66
2023-02-12T11:02:34.101Z,13.86
2023-02-12T11:07:47.578Z,13.36
2023-02-12T11:12:49.369Z,13.61
2023-02-12T11:18:05.413Z,13.04
2023-02-12T11:23:24.629Z,12.40
2023-02-12T11:28:27.185Z,12.38
2023-02-12T11:33:34.999Z,12.24
2023-02-12T11:38:40.527Z,11.85
2023-02-12T11:43:42.457Z,11.74
2023-02-12T11:48:47.479Z,11.49
2023-02-12T11:53:52.722Z,11.60
2023-02-12T11:58:56.218Z,11.66
2023-02-12T12:04:08.699Z,11.90
2023-02-12T12:09:13.185Z,11.98
2023-02-12T12:14:20.397Z,11.68
2023-02-12T12:19:47.130Z,11.76
2023-02-12T12:25:25.181Z,11.94
2023-02-12T12:30:49.076Z,11.84
2023-02-12T12:36:04.755Z,11.63
2023-02-12T12:41:30.191Z,11.70
2023-02-12T12:46:58.152Z,11.91
2023-02-12T12:52:36.612Z,11.82
2023-02-12T12:58:09.242Z,12.00
2023-02-12T13:03:22.339Z,11.88
2023-02-12T13:08:32.850Z,12.00
2023-02-12T13:13:37.739Z,11.88
2023-02-12T13:19:12.862Z,11.53
2023-02-12T13:24:43.866Z,11.51
2023-02-12T13:29:51.477Z,11.67
2023-02-12T13:34:55.004Z,11.65
2023-02-12T13:40:00.448Z,11.55
2023-02-12T13:45:27.424Z,11.46
2023-02-12T13:50:40.840Z,11.32
2023-02-12T13:56:05.464Z,11.26
2023-02-12T14:01:34.493Z,11.15
2023-02-12T14:06:36.148Z,11.15
2023-02-12T14:11:56.851Z,11.42
2023-02-12T14:17:18.907Z,11.54
2023-02-12T14:22:26.866Z,11.46
2023-02-12T14:27:50.322Z,11.42
2023-02-12T14:32:58.273Z,11.41
2023-02-12T14:38:21.678Z,11.33
2023-02-12T14:43:55.673Z,11.35
2023-02-12T14:49:05.047Z,11.33
2023-02-12T14:54:18.350Z,11.36
2023-02-12T14:59:23.158Z,11.28
2023-02-12T15:04:28.130Z,11.23
2023-02-12T15:09:39.007Z,11.27
2023-02-12T15:14:45.850Z,11.25
2023-02-12T15:20:02.877Z,11.22
2023-02-12T15:25:30.462Z,11.13
2023-02-12T15:30:35.639Z,11.08
2023-02-12T15:35:44.250Z,11.05
2023-02-12T15:40:55.485Z,11.02
2023-02-12T15:45:57.788Z,11.00
2023-02-12T15:51:02.893Z,10.95
2023-02-12T15:56:05.098Z,10.90
2023-02-12T16:01:07.906Z,10.85
2023-02-12T16:06:14.149Z,10.78
2023-02-12T16:11:22.132Z,10.72
2023-02-12T16:16:46.203Z,10.61
2023-02-12T16:21:51.885Z,10.49
2023-02-12T16:26:54.292Z,10.42
2023-02-12T16:32:02.229Z,10.30
2023-02-12T16:37:39.065Z,10.18
2023-02-12T16:42:46.558Z,10.05
2023-02-12T16:47:50.255Z,9.93
2023-02-12T16:53:04.310Z,9.81
2023-02-12T16:58:05.881Z,9.70
2023-02-12T17:03:13.172Z,9.62
2023-02-12T17:08:20.860Z,9.52
2023-02-12T17:13:22.398Z,9.46
2023-02-12T17:18:25.077Z,9.42
2023-02-12T17:23:27.250Z,9.37
2023-02-12T17:28:29.568Z,9.34
2023-02-12T17:33:31.171Z,9.33
2023-02-12T17:38:32.684Z,9.22
2023-02-12T17:43:34.180Z,9.13
2023-02-12T17:48:35.664Z,9.04
2023-02-12T17:53:38.747Z,8.98
2023-02-12T17:58:41.747Z,8.90
2023-02-12T18:03:43.941Z,8.84
2023-02-12T18:08:45.642Z,8.76
2023-02-12T18:13:47.579Z,8.70
2023-02-12T18:18:49.305Z,8.63
2023-02-12T18:23:50.944Z,8.57
2023-02-12T18:28:53.934Z,8.48
2023-02-12T18:33:55.478Z,8.40
2023-02-12T18:38:57.028Z,8.33
2023-02-12T18:43:59.371Z,8.18
2023-02-12T18:49:01.795Z,8.08
2023-02-12T18:54:07.511Z,8.00
2023-02-12T18:59:11.895Z,7.88
2023-02-12T19:04:16.106Z,7.81
2023-02-12T19:09:21.597Z,7.74
2023-02-12T19:14:24.840Z,7.68
2023-02-12T19:19:27.260Z,7.64
2023-02-12T19:24:40.893Z,7.58
2023-02-12T19:29:47.254Z,7.49
2023-02-12T19:34:48.789Z,7.53
2023-02-12T19:39:50.283Z,7.59
2023-02-12T19:44:51.805Z,7.53
2023-02-12T19:49:53.977Z,7.53
2023-02-12T19:54:55.504Z,7.47
2023-02-12T19:59:56.981Z,7.44
2023-02-12T20:04:58.473Z,7.40
2023-02-12T20:09:59.952Z,7.38
2023-02-12T20:15:04.454Z,7.35
2023-02-12T20:20:06.612Z,7.32
2023-02-12T20:25:08.413Z,7.37
2023-02-12T20:30:10.346Z,7.36
2023-02-12T20:35:13.318Z,7.28
2023-02-12T20:40:14.833Z,7.23
2023-02-12T20:45:16.434Z,7.18
2023-02-12T20:50:18.236Z,7.12
2023-02-12T20:55:20.949Z,7.05
2023-02-12T21:00:22.545Z,6.96
2023-02-12T21:05:24.150Z,6.89
2023-02-12T21:10:26.164Z,6.80
2023-02-12T21:15:28.744Z,6.76
2023-02-12T21:20:30.224Z,6.80
2023-02-12T21:25:31.660Z,6.71
2023-02-12T21:30:33.133Z,6.60
2023-02-12T21:35:36.126Z,6.59
2023-02-12T21:40:37.602Z,6.55
2023-02-12T21:45:49.521Z,6.57
2023-02-12T21:50:50.992Z,6.54
2023-02-12T21:55:52.521Z,6.50
2023-02-12T22:00:54.143Z,6.41
2023-02-12T22:06:00.904Z,6.39
2023-02-12T22:11:04.470Z,6.40
2023-02-12T22:16:13.102Z,6.30
2023-02-12T22:21:16.844Z,6.21
2023-02-12T22:26:24.327Z,6.19
2023-02-12T22:31:31.264Z,6.19
2023-02-12T22:36:35.210Z,6.15
2023-02-12T22:41:37.960Z,6.12
2023-02-12T22:46:40.040Z,6.06
2023-02-12T22:51:42.137Z,6.00
2023-02-12T22:56:44.856Z,6.00
2023-02-12T23:01:46.406Z,5.99
2023-02-12T23:06:48.220Z,5.99
2023-02-12T23:11:49.753Z,5.95
2023-02-12T23:16:51.337Z,5.97
2023-02-12T23:21:52.785Z,5.99
2023-02-12T23:26:54.309Z,5.99
2023-02-12T23:31:55.784Z,6.00
2023-02-12T23:36:57.399Z,5.99
2023-02-12T23:41:58.872Z,5.96
2023-02-12T23:47:02.065Z,5.93
2023-02-12T23:52:03.703Z,5.91
2023-02-12T23:57:05.119Z,5.88
